Time;durP1;ratioP1;P1;durP2;ratioP2;P2;SDS_P1;SDS_P2;PMS_P1;PMS_P2;Temp;Humidity;BMP_temperature;BMP_pressure;BME280_temperature;BME280_humidity;BME280_pressure;Samples;Min_cycle;Max_cycle;Signal;HPM_P1;HPM_P2
2022/12/12 00:01:52;;;;;;;5.17;2.33;;;-4.70;99.90;;;;;;5055741;28;20517;-48
2022/12/12 00:04:19;;;;;;;3.53;2.40;;;-4.90;99.90;;;;;;5058744;28;20553;-48
2022/12/12 00:06:46;;;;;;;2.13;1.93;;;-5.20;99.90;;;;;;5056658;28;20457;-48
2022/12/12 00:09:13;;;;;;;4.20;2.63;;;-5.10;99.90;;;;;;5070251;28;20443;-47
2022/12/12 00:11:40;;;;;;;2.70;2.25;;;-4.80;99.90;;;;;;5058193;28;20466;-48
2022/12/12 00:14:07;;;;;;;3.60;2.45;;;-4.60;99.90;;;;;;5050071;28;20222;-50
2022/12/12 00:16:35;;;;;;;2.40;2.10;;;-4.50;99.90;;;;;;5064119;28;20192;-48
2022/12/12 00:19:02;;;;;;;3.20;2.13;;;-4.60;99.90;;;;;;5057266;28;20208;-48
2022/12/12 00:21:29;;;;;;;3.47;1.87;;;-4.90;99.90;;;;;;5063458;28;20433;-47
2022/12/12 00:23:57;;;;;;;6.37;3.07;;;-5.00;99.90;;;;;;5070604;28;20562;-48
2022/12/12 00:26:26;;;;;;;2.65;1.80;;;-5.10;99.90;;;;;;5068768;28;21051;-49
2022/12/12 00:28:53;;;;;;;2.80;1.60;;;-5.10;99.90;;;;;;5052579;28;20283;-48
2022/12/12 00:31:20;;;;;;;1.70;1.43;;;-5.30;99.90;;;;;;5062128;28;20569;-49
2022/12/12 00:33:49;;;;;;;2.87;1.47;;;-5.40;99.90;;;;;;5052725;28;20466;-47
2022/12/12 00:36:16;;;;;;;3.20;2.00;;;-5.20;99.90;;;;;;5068863;28;20447;-48
2022/12/12 00:38:43;;;;;;;2.70;1.83;;;-5.00;99.90;;;;;;5068074;28;20448;-47
2022/12/12 00:41:10;;;;;;;2.80;2.23;;;-5.00;99.90;;;;;;5071265;28;20219;-48
2022/12/12 00:43:37;;;;;;;4.20;2.63;;;-4.80;99.90;;;;;;5052235;28;20541;-48
2022/12/12 00:46:04;;;;;;;3.93;2.70;;;-4.80;99.90;;;;;;5051811;28;20504;-47
2022/12/12 00:48:31;;;;;;;2.93;2.00;;;-4.80;99.90;;;;;;5070366;28;20441;-48
2022/12/12 00:51:08;;;;;;;2.03;1.80;;;-4.80;99.90;;;;;;5069868;28;20453;-48
2022/12/12 00:53:35;;;;;;;2.57;2.13;;;-4.60;99.90;;;;;;5053601;28;20987;-47
2022/12/12 00:56:02;;;;;;;3.42;2.55;;;-4.70;99.90;;;;;;5054818;28;20537;-47
2022/12/12 00:58:30;;;;;;;2.00;1.63;;;-4.50;99.90;;;;;;5055114;28;20199;-47
2022/12/12 01:01:05;;;;;;;2.77;1.93;;;-5.00;99.90;;;;;;5050878;28;20648;-47
2022/12/12 01:03:32;;;;;;;3.27;2.40;;;-5.00;99.90;;;;;;5050243;28;20470;-47
2022/12/12 01:06:00;;;;;;;2.33;1.97;;;-4.70;99.90;;;;;;5049322;28;20542;-47
2022/12/12 01:08:27;;;;;;;3.17;1.97;;;-4.80;99.90;;;;;;5050392;28;20439;-47
2022/12/12 01:10:54;;;;;;;2.37;1.60;;;-5.30;99.90;;;;;;5050795;28;20441;-47
2022/12/12 01:13:21;;;;;;;1.63;1.30;;;-5.20;99.90;;;;;;5050806;28;20545;-47
2022/12/12 01:15:48;;;;;;;3.17;2.07;;;-5.40;99.90;;;;;;5050441;28;20534;-48
2022/12/12 01:18:15;;;;;;;4.20;2.00;;;-5.20;99.90;;;;;;5050500;28;20482;-47
2022/12/12 01:20:42;;;;;;;2.10;1.60;;;-5.30;99.90;;;;;;5050387;28;20823;-47
2022/12/12 01:23:11;;;;;;;3.55;1.60;;;-5.00;99.90;;;;;;5050121;28;20497;-47
2022/12/12 01:25:38;;;;;;;2.43;1.63;;;-5.30;99.90;;;;;;5051299;28;20249;-48
2022/12/12 01:28:05;;;;;;;2.42;1.92;;;-5.40;99.90;;;;;;5050319;28;20529;-48
2022/12/12 01:30:33;;;;;;;2.17;1.60;;;-5.20;99.90;;;;;;5050584;28;20373;-47
2022/12/12 01:33:00;;;;;;;3.40;1.95;;;-4.90;99.90;;;;;;5049984;28;20550;-50
2022/12/12 01:35:27;;;;;;;2.37;1.70;;;-5.30;99.90;;;;;;5050296;28;20220;-47
2022/12/12 01:37:54;;;;;;;2.23;2.03;;;-5.30;99.90;;;;;;5050285;28;20537;-47
2022/12/12 01:40:25;;;;;;;2.33;1.95;;;-5.40;99.90;;;;;;5052335;28;20442;-48
2022/12/12 01:42:53;;;;;;;3.07;1.47;;;-5.40;99.90;;;;;;5058596;28;20310;-45
2022/12/12 01:45:57;;;;;;;2.03;1.55;;;-5.20;99.90;;;;;;5073982;28;20989;-47
2022/12/12 01:48:28;;;;;;;1.75;1.55;;;-5.30;99.90;;;;;;5071119;28;20277;-47
2022/12/12 01:50:57;;;;;;;2.07;1.40;;;-5.50;99.90;;;;;;5074386;28;20194;-49
2022/12/12 01:53:28;;;;;;;1.30;1.13;;;-5.50;99.90;;;;;;5061395;28;20469;-47
2022/12/12 01:55:57;;;;;;;2.40;1.97;;;-5.50;99.90;;;;;;5069974;28;20509;-47
2022/12/12 01:58:24;;;;;;;2.13;1.92;;;-5.40;99.90;;;;;;5060344;28;20473;-47
2022/12/12 02:00:51;;;;;;;4.72;1.85;;;-5.30;99.90;;;;;;5063149;28;20685;-50
2022/12/12 02:03:18;;;;;;;2.20;1.57;;;-5.60;99.90;;;;;;5072414;28;20660;-47
2022/12/12 02:05:50;;;;;;;2.27;1.50;;;-5.90;99.90;;;;;;5054689;28;20560;-47
2022/12/12 02:08:19;;;;;;;2.30;1.40;;;-6.10;99.90;;;;;;5068973;28;20459;-47
2022/12/12 02:10:46;;;;;;;2.33;1.80;;;-5.80;99.90;;;;;;5074477;28;20281;-49
2022/12/12 02:13:18;;;;;;;1.97;1.50;;;-5.90;99.90;;;;;;5073523;28;20501;-47
2022/12/12 02:15:51;;;;;;;1.60;1.10;;;-6.00;99.90;;;;;;5069336;28;20545;-47
2022/12/12 02:18:25;;;;;;;2.42;1.55;;;-6.20;99.90;;;;;;5062500;28;20675;-50
2022/12/12 02:21:01;;;;;;;3.28;2.05;;;-6.30;99.90;;;;;;5074158;28;20739;-47
2022/12/12 02:24:07;;;;;;;1.90;1.15;;;-6.60;99.90;;;;;;5063275;28;20299;-47
2022/12/12 02:27:03;;;;;;;2.10;1.40;;;-6.40;99.90;;;;;;5054370;28;20219;-47
2022/12/12 02:30:13;;;;;;;2.65;1.45;;;-6.30;99.90;;;;;;5071965;28;20281;-48
2022/12/12 02:32:53;;;;;;;2.30;2.00;;;-6.30;99.90;;;;;;5059308;28;20195;-48
2022/12/12 02:35:30;;;;;;;2.60;1.75;;;-6.10;99.90;;;;;;5063579;28;20201;-48
2022/12/12 02:38:06;;;;;;;2.65;1.80;;;-5.90;99.90;;;;;;5065867;28;20301;-48
2022/12/12 02:40:39;;;;;;;2.13;1.35;;;-6.10;99.90;;;;;;5072688;28;20297;-48
2022/12/12 02:43:16;;;;;;;2.97;1.65;;;-6.00;99.90;;;;;;5063047;28;20214;-48
2022/12/12 02:45:47;;;;;;;3.83;1.50;;;-6.00;99.90;;;;;;5062712;28;20510;-50
2022/12/12 02:48:20;;;;;;;2.55;1.23;;;-5.80;99.90;;;;;;5058129;28;20278;-49
2022/12/12 02:50:53;;;;;;;1.27;1.05;;;-5.80;99.90;;;;;;5051909;28;20293;-51
2022/12/12 02:53:22;;;;;;;2.13;1.55;;;-6.30;99.90;;;;;;5052019;28;20207;-49
2022/12/12 02:55:49;;;;;;;2.00;1.30;;;-5.70;99.90;;;;;;5053963;28;20203;-49
2022/12/12 02:58:17;;;;;;;1.92;1.27;;;-5.70;99.90;;;;;;5067072;28;20217;-49
2022/12/12 03:00:55;;;;;;;1.70;1.60;;;-5.70;99.90;;;;;;5062731;28;20203;-48
2022/12/12 03:09:28;;;;;;;3.00;1.50;;;-6.40;99.90;;;;;;5072120;28;20214;-48
2022/12/12 03:12:04;;;;;;;1.50;1.15;;;-6.40;99.90;;;;;;5060074;28;20241;-48
2022/12/12 03:14:45;;;;;;;2.08;1.13;;;-6.50;99.90;;;;;;5053016;28;20311;-48
2022/12/12 03:17:20;;;;;;;1.67;1.40;;;-6.60;99.90;;;;;;5067719;28;20281;-48
2022/12/12 03:19:55;;;;;;;2.80;2.50;;;-6.80;99.90;;;;;;5072766;28;20194;-48
2022/12/12 03:22:27;;;;;;;3.15;1.75;;;-6.80;99.90;;;;;;5071234;28;20666;-49
2022/12/12 03:25:02;;;;;;;2.75;2.17;;;-6.60;99.90;;;;;;5071101;28;20293;-48
2022/12/12 03:27:34;;;;;;;4.47;2.35;;;-6.50;99.90;;;;;;5053914;28;20191;-49
2022/12/12 03:30:04;;;;;;;1.83;1.33;;;-6.50;99.90;;;;;;5057269;28;20192;-51
2022/12/12 03:32:36;;;;;;;1.73;1.33;;;-6.80;99.90;;;;;;5064662;28;20270;-49
2022/12/12 03:35:12;;;;;;;2.58;1.75;;;-6.60;99.90;;;;;;5067867;28;20194;-49
2022/12/12 03:37:46;;;;;;;1.60;1.50;;;-6.50;99.90;;;;;;5067024;28;20284;-48
2022/12/12 03:40:18;;;;;;;4.72;2.28;;;-6.40;99.90;;;;;;5055163;28;20196;-49
2022/12/12 03:42:49;;;;;;;2.65;1.75;;;-6.70;99.90;;;;;;5066290;28;20254;-47
2022/12/12 03:45:23;;;;;;;1.55;1.20;;;-6.70;99.90;;;;;;5053863;28;20223;-51
2022/12/12 03:47:54;;;;;;;1.23;1.00;;;-6.70;99.90;;;;;;5072022;28;20187;-48
2022/12/12 03:50:25;;;;;;;1.40;1.20;;;-6.90;99.90;;;;;;5064066;28;20635;-48
2022/12/12 03:52:56;;;;;;;1.60;1.17;;;-6.90;99.90;;;;;;5063265;28;20768;-45
2022/12/12 03:55:29;;;;;;;4.57;1.45;;;-6.80;99.90;;;;;;5064820;28;20187;-48
2022/12/12 03:58:00;;;;;;;15.35;6.40;;;-6.80;99.90;;;;;;5063330;28;20226;-48
2022/12/12 04:00:31;;;;;;;5.53;3.90;;;-6.70;99.90;;;;;;5067787;28;20223;-50
2022/12/12 04:03:05;;;;;;;14.95;5.53;;;-6.60;99.90;;;;;;5056530;28;20317;-48
2022/12/12 04:08:28;;;;;;;3.80;2.47;;;-6.90;99.90;;;;;;5061878;28;20695;-48
2022/12/12 04:13:53;;;;;;;3.03;1.60;;;-6.20;99.90;;;;;;5062647;28;20214;-48
2022/12/12 04:16:25;;;;;;;1.77;1.52;;;-6.40;99.90;;;;;;5062290;28;20630;-48
2022/12/12 04:18:56;;;;;;;2.35;1.70;;;-6.50;99.90;;;;;;5058885;28;20297;-49
2022/12/12 04:24:29;;;;;;;1.50;1.40;;;-6.60;99.90;;;;;;5051388;28;20423;-48
2022/12/12 04:27:00;;;;;;;2.10;1.52;;;-6.80;99.90;;;;;;5057237;28;20198;-48
2022/12/12 04:29:32;;;;;;;1.85;1.55;;;-6.90;99.90;;;;;;5068604;28;20190;-50
2022/12/12 04:32:05;;;;;;;1.40;1.20;;;-7.10;99.90;;;;;;5055336;28;20278;-51
2022/12/12 04:34:39;;;;;;;1.80;1.40;;;-7.20;99.90;;;;;;5053157;28;20329;-47
2022/12/12 04:37:09;;;;;;;1.38;1.08;;;-7.40;99.90;;;;;;5061978;28;20728;-48
2022/12/12 04:39:37;;;;;;;3.00;1.83;;;-7.50;99.90;;;;;;5071292;28;20581;-48
2022/12/12 04:42:07;;;;;;;1.30;1.20;;;-7.30;99.90;;;;;;5060613;28;20286;-48
2022/12/12 04:44:36;;;;;;;2.30;1.70;;;-7.50;99.90;;;;;;5050576;28;20706;-50
2022/12/12 04:47:06;;;;;;;1.75;1.35;;;-7.30;99.90;;;;;;5068346;28;20281;-48
2022/12/12 04:49:35;;;;;;;2.25;1.63;;;-7.00;99.90;;;;;;5051902;28;20286;-48
2022/12/12 04:52:06;;;;;;;4.35;1.27;;;-6.70;99.90;;;;;;5057644;28;20287;-49
2022/12/12 04:54:42;;;;;;;2.50;2.30;;;-7.10;99.90;;;;;;5057373;28;20222;-48
2022/12/12 04:57:13;;;;;;;1.40;1.30;;;-7.20;99.90;;;;;;5071219;28;20194;-48
2022/12/12 04:59:40;;;;;;;1.52;1.33;;;-6.90;99.90;;;;;;5068966;28;20285;-48
2022/12/12 05:02:15;;;;;;;1.95;1.70;;;-6.50;99.90;;;;;;5064438;28;20234;-48
2022/12/12 05:04:47;;;;;;;3.00;1.30;;;-6.50;99.90;;;;;;5061898;28;20218;-48
2022/12/12 05:07:17;;;;;;;2.47;1.95;;;-6.70;99.90;;;;;;5069186;28;20198;-48
2022/12/12 05:09:46;;;;;;;2.00;1.17;;;-6.80;99.90;;;;;;5052319;28;20199;-48
2022/12/12 05:12:15;;;;;;;1.83;1.40;;;-7.10;99.90;;;;;;5051745;28;20200;-48
2022/12/12 05:14:42;;;;;;;2.50;2.10;;;-7.30;99.90;;;;;;5051478;28;20211;-50
2022/12/12 05:17:13;;;;;;;6.03;5.00;;;-7.40;99.90;;;;;;5061910;28;20200;-48
2022/12/12 05:19:40;;;;;;;3.92;3.42;;;-7.30;99.90;;;;;;5056151;28;20294;-50
2022/12/12 05:22:07;;;;;;;4.95;3.83;;;-7.40;99.90;;;;;;5055095;28;20205;-48
2022/12/12 05:24:33;;;;;;;8.77;4.47;;;-7.30;99.90;;;;;;5060036;28;20305;-49
2022/12/12 05:27:02;;;;;;;4.00;3.10;;;-7.50;99.90;;;;;;5059244;28;20191;-49
2022/12/12 05:29:30;;;;;;;2.33;1.65;;;-7.60;99.90;;;;;;5072434;28;20201;-48
2022/12/12 05:31:57;;;;;;;5.18;3.90;;;-7.20;99.90;;;;;;5071546;28;20281;-48
2022/12/12 05:34:24;;;;;;;4.07;3.50;;;-7.50;99.90;;;;;;5073062;28;20211;-49
2022/12/12 05:36:51;;;;;;;3.25;2.60;;;-7.60;99.90;;;;;;5059733;28;20284;-48
2022/12/12 05:39:18;;;;;;;4.15;2.20;;;-7.60;99.90;;;;;;5057745;28;20206;-48
2022/12/12 05:41:45;;;;;;;5.78;3.83;;;-7.90;99.90;;;;;;5055324;28;20397;-49
2022/12/12 05:44:13;;;;;;;4.88;4.30;;;-7.40;99.90;;;;;;5054731;28;20309;-48
2022/12/12 05:46:40;;;;;;;2.33;1.90;;;-7.10;99.90;;;;;;5054951;28;20665;-48
2022/12/12 05:49:07;;;;;;;3.72;1.80;;;-7.00;99.90;;;;;;5060599;28;20186;-48
2022/12/12 05:51:33;;;;;;;3.67;1.50;;;-7.40;99.90;;;;;;5068942;28;20587;-48
2022/12/12 05:54:00;;;;;;;3.13;2.13;;;-7.60;99.90;;;;;;5068349;28;20213;-48
2022/12/12 05:56:27;;;;;;;1.92;1.50;;;-7.60;99.90;;;;;;5067423;28;20214;-47
2022/12/12 05:58:54;;;;;;;2.65;2.08;;;-7.40;99.90;;;;;;5054612;28;20196;-47
2022/12/12 06:01:22;;;;;;;2.95;2.22;;;-7.30;99.90;;;;;;5070934;28;20195;-48
2022/12/12 06:03:49;;;;;;;4.32;3.55;;;-7.40;99.90;;;;;;5068407;28;20229;-48
2022/12/12 06:06:16;;;;;;;11.98;10.77;;;-7.40;99.90;;;;;;5061885;28;20199;-49
2022/12/12 06:08:43;;;;;;;23.52;20.40;;;-7.50;99.90;;;;;;5055165;28;20249;-48
2022/12/12 06:11:10;;;;;;;14.00;12.27;;;-7.60;99.90;;;;;;5054103;28;20668;-49
2022/12/12 06:13:38;;;;;;;5.30;4.78;;;-7.70;99.90;;;;;;5057543;28;20294;-48
2022/12/12 06:16:08;;;;;;;3.30;3.00;;;-7.80;99.90;;;;;;5065012;28;20195;-48
2022/12/12 06:18:37;;;;;;;2.45;2.25;;;-7.70;99.90;;;;;;5059253;28;20290;-48
2022/12/12 06:21:06;;;;;;;2.28;1.90;;;-7.40;99.90;;;;;;5069717;28;20190;-48
2022/12/12 06:23:36;;;;;;;7.93;4.40;;;-7.60;99.90;;;;;;5060519;28;20302;-47
2022/12/12 06:26:03;;;;;;;8.60;7.20;;;-7.70;99.90;;;;;;5070316;28;20719;-48
2022/12/12 06:28:30;;;;;;;10.25;8.23;;;-7.50;99.90;;;;;;5073886;28;20198;-48
2022/12/12 06:30:57;;;;;;;14.30;12.63;;;-7.10;99.90;;;;;;5073960;28;20679;-48
2022/12/12 06:33:24;;;;;;;8.57;6.85;;;-7.00;99.90;;;;;;5072833;28;20301;-49
2022/12/12 06:35:59;;;;;;;3.60;3.30;;;-7.00;99.90;;;;;;5071775;28;20301;-50
2022/12/12 06:38:27;;;;;;;6.50;4.80;;;-7.60;99.90;;;;;;5072667;28;20294;-48
2022/12/12 06:40:54;;;;;;;7.15;6.38;;;-7.70;99.90;;;;;;5071368;28;20191;-48
2022/12/12 06:43:21;;;;;;;7.30;6.70;;;-7.60;99.90;;;;;;5072032;28;20233;-48
2022/12/12 06:45:47;;;;;;;13.38;9.63;;;-7.70;99.90;;;;;;5072366;28;20658;-48
2022/12/12 06:48:14;;;;;;;5.80;5.30;;;-7.70;99.90;;;;;;5072719;28;20588;-48
2022/12/12 06:50:43;;;;;;;4.88;3.78;;;-7.60;99.90;;;;;;5073771;28;20281;-48
2022/12/12 06:53:11;;;;;;;3.47;2.70;;;-7.40;99.90;;;;;;5072975;28;20305;-50
2022/12/12 06:55:42;;;;;;;6.10;3.40;;;-8.60;99.90;;;;;;5067310;28;20195;-48
2022/12/12 06:58:09;;;;;;;15.95;8.40;;;-8.50;99.90;;;;;;5052195;28;20578;-49
2022/12/12 07:00:36;;;;;;;16.92;9.40;;;-8.30;99.90;;;;;;5052067;28;20202;-49
2022/12/12 07:03:03;;;;;;;10.43;8.38;;;-8.20;99.90;;;;;;5051573;28;20306;-48
2022/12/12 07:05:30;;;;;;;12.20;8.68;;;-8.10;99.90;;;;;;5063267;28;20199;-50
2022/12/12 07:08:01;;;;;;;33.58;30.02;;;-7.90;99.90;;;;;;5060624;28;20613;-50
2022/12/12 07:10:30;;;;;;;9.55;7.40;;;-7.60;99.90;;;;;;5052455;28;20202;-48
2022/12/12 07:12:57;;;;;;;9.18;6.40;;;-7.40;99.90;;;;;;5064329;28;20301;-51
2022/12/12 07:15:24;;;;;;;5.28;4.25;;;-7.60;99.90;;;;;;5073127;28;20190;-49
2022/12/12 07:17:52;;;;;;;3.67;2.08;;;-7.50;99.90;;;;;;5072774;28;20282;-48
2022/12/12 07:20:19;;;;;;;4.07;2.75;;;-8.20;99.90;;;;;;5071074;28;20412;-49
2022/12/12 07:22:46;;;;;;;1.77;1.65;;;-8.10;99.90;;;;;;5061360;28;20578;-49
2022/12/12 07:25:13;;;;;;;3.28;2.65;;;-8.30;99.90;;;;;;5072643;28;20225;-49
2022/12/12 07:27:41;;;;;;;5.80;4.25;;;-8.70;99.90;;;;;;5072876;28;20210;-48
2022/12/12 07:30:09;;;;;;;3.22;2.85;;;-8.90;99.90;;;;;;5073084;28;20285;-48
2022/12/12 07:32:36;;;;;;;6.22;3.90;;;-8.70;99.90;;;;;;5072571;28;20285;-49
2022/12/12 07:35:03;;;;;;;6.05;3.03;;;-8.70;99.90;;;;;;5071750;28;20203;-49
2022/12/12 07:37:29;;;;;;;7.93;7.13;;;-8.30;99.90;;;;;;5059671;28;20227;-49
2022/12/12 07:39:56;;;;;;;7.32;6.65;;;-8.00;99.90;;;;;;5052310;28;20209;-49
2022/12/12 07:42:23;;;;;;;9.18;8.18;;;-7.80;99.90;;;;;;5061867;28;20222;-49
2022/12/12 07:44:51;;;;;;;7.70;6.60;;;-7.80;99.90;;;;;;5061567;28;20214;-49
2022/12/12 07:47:18;;;;;;;8.02;4.75;;;-7.70;99.90;;;;;;5072187;28;20197;-49
2022/12/12 07:49:46;;;;;;;3.90;2.83;;;-7.50;99.90;;;;;;5072039;28;20285;-50
2022/12/12 07:52:12;;;;;;;2.35;2.03;;;-7.20;99.90;;;;;;5064585;28;20575;-48
2022/12/12 07:54:39;;;;;;;2.47;2.15;;;-6.90;99.90;;;;;;5052024;28;20219;-51
2022/12/12 07:57:06;;;;;;;1.98;1.80;;;-7.20;99.90;;;;;;5060705;28;20194;-50
2022/12/12 07:59:33;;;;;;;5.15;2.33;;;-7.50;99.90;;;;;;5072408;28;20199;-49
2022/12/12 08:02:01;;;;;;;5.60;2.28;;;-7.50;99.90;;;;;;5070370;28;20198;-50
2022/12/12 08:04:28;;;;;;;3.08;2.50;;;-7.80;99.90;;;;;;5071658;28;20218;-50
2022/12/12 08:06:56;;;;;;;2.72;2.42;;;-8.20;99.90;;;;;;5070939;28;20286;-49
2022/12/12 08:09:23;;;;;;;2.75;2.03;;;-8.30;99.90;;;;;;5060763;28;20191;-49
2022/12/12 08:11:50;;;;;;;4.75;2.33;;;-8.30;99.90;;;;;;5071976;28;20195;-48
2022/12/12 08:14:17;;;;;;;2.92;2.30;;;-8.30;99.90;;;;;;5071651;28;20301;-49
2022/12/12 08:16:44;;;;;;;2.40;2.13;;;-8.10;99.90;;;;;;5070380;28;20195;-48
2022/12/12 08:19:12;;;;;;;4.25;2.58;;;-7.80;99.90;;;;;;5054309;28;20206;-48
2022/12/12 08:21:39;;;;;;;3.42;2.58;;;-7.50;99.90;;;;;;5056082;28;20194;-49
2022/12/12 08:24:06;;;;;;;2.00;1.80;;;-7.40;99.90;;;;;;5071344;28;20219;-49
2022/12/12 08:26:35;;;;;;;3.00;2.00;;;-7.20;99.90;;;;;;5052620;28;20195;-50
2022/12/12 08:29:03;;;;;;;4.20;2.50;;;-7.20;99.90;;;;;;5051086;28;20278;-49
2022/12/12 08:31:30;;;;;;;2.88;2.17;;;-7.60;99.90;;;;;;5054251;28;20702;-52
2022/12/12 08:33:57;;;;;;;3.08;2.83;;;-7.60;99.90;;;;;;5077184;23;20269;-46
2022/12/12 08:36:28;;;;;;;7.38;3.92;;;-7.90;99.90;;;;;;5071295;28;20209;-47
2022/12/12 08:38:56;;;;;;;6.75;3.35;;;-8.70;99.90;;;;;;5071212;28;20194;-48
2022/12/12 08:41:23;;;;;;;6.60;5.50;;;-8.60;99.90;;;;;;5071293;28;20202;-47
2022/12/12 08:43:51;;;;;;;3.90;2.92;;;-8.80;99.90;;;;;;5066478;28;20311;-47
2022/12/12 08:46:19;;;;;;;4.68;3.75;;;-8.90;99.90;;;;;;5051275;28;20674;-46
2022/12/12 08:48:47;;;;;;;7.53;4.80;;;-8.60;99.90;;;;;;5051413;28;20300;-47
2022/12/12 08:51:14;;;;;;;4.45;4.00;;;-8.40;99.90;;;;;;5051171;28;20291;-47
2022/12/12 08:53:44;;;;;;;4.47;3.90;;;-8.10;99.90;;;;;;5050236;28;20287;-47
2022/12/12 08:56:11;;;;;;;3.67;3.10;;;-7.90;99.90;;;;;;5051240;28;20664;-47
2022/12/12 08:58:37;;;;;;;3.55;2.90;;;-7.80;99.90;;;;;;5051410;28;20290;-47
2022/12/12 09:01:10;;;;;;;3.83;3.38;;;-7.90;99.90;;;;;;5051232;28;20195;-46
2022/12/12 09:03:37;;;;;;;4.75;3.30;;;-8.50;99.90;;;;;;5050778;28;20792;-47
2022/12/12 09:06:05;;;;;;;3.90;3.50;;;-8.70;99.90;;;;;;5050683;28;20204;-47
2022/12/12 09:08:33;;;;;;;4.50;4.10;;;-8.50;99.90;;;;;;5051069;28;20209;-47
2022/12/12 09:11:01;;;;;;;6.97;4.70;;;-8.30;99.90;;;;;;5051004;28;20751;-47
2022/12/12 09:13:28;;;;;;;3.90;3.60;;;-8.10;99.90;;;;;;5049884;28;20201;-47
2022/12/12 09:15:55;;;;;;;4.22;3.78;;;-8.10;99.90;;;;;;5050837;28;20199;-47
2022/12/12 09:18:22;;;;;;;3.92;3.28;;;-8.00;99.90;;;;;;5050462;28;20758;-46
2022/12/12 09:20:49;;;;;;;8.50;4.82;;;-7.80;99.90;;;;;;5049192;28;20315;-47
2022/12/12 09:23:16;;;;;;;9.18;8.15;;;-7.90;99.90;;;;;;5048177;28;20282;-47
2022/12/12 09:25:43;;;;;;;13.13;6.47;;;-7.70;99.90;;;;;;5049066;28;20219;-47
2022/12/12 09:28:12;;;;;;;5.07;3.60;;;-7.40;99.90;;;;;;5049429;28;20196;-47
2022/12/12 09:30:39;;;;;;;4.00;3.58;;;-7.20;99.90;;;;;;5048932;28;20199;-47
2022/12/12 09:33:06;;;;;;;5.88;4.07;;;-7.60;99.90;;;;;;5049158;28;20290;-47
2022/12/12 09:35:32;;;;;;;4.40;3.72;;;-8.20;99.90;;;;;;5050430;28;20799;-47
2022/12/12 09:37:59;;;;;;;4.30;3.53;;;-8.50;99.90;;;;;;5049106;28;20222;-47
2022/12/12 09:40:32;;;;;;;3.30;2.70;;;-8.50;99.90;;;;;;5050773;28;20282;-47
2022/12/12 09:42:59;;;;;;;3.63;2.50;;;-8.20;99.90;;;;;;5050563;28;20294;-48
2022/12/12 09:45:28;;;;;;;6.15;4.30;;;-7.60;99.90;;;;;;5049363;28;20451;-46
2022/12/12 09:48:00;;;;;;;4.10;3.17;;;-7.40;99.90;;;;;;5050343;28;20195;-47
2022/12/12 09:50:31;;;;;;;4.88;3.47;;;-7.10;99.90;;;;;;5050633;28;20203;-47
2022/12/12 09:53:01;;;;;;;4.70;3.88;;;-7.00;99.90;;;;;;5049931;28;20206;-46
2022/12/12 09:55:37;;;;;;;3.65;2.35;;;-7.20;99.90;;;;;;5050285;28;20398;-47
2022/12/12 09:58:12;;;;;;;2.97;2.75;;;-7.30;99.90;;;;;;5050475;28;20282;-46
2022/12/12 10:00:47;;;;;;;4.38;2.53;;;-7.40;99.90;;;;;;5050657;28;20340;-46
2022/12/12 10:03:26;;;;;;;5.38;3.67;;;-7.60;99.90;;;;;;5054249;28;20285;-46
2022/12/12 10:05:58;;;;;;;8.50;5.55;;;-7.90;99.90;;;;;;5054571;28;20254;-46
2022/12/12 10:08:31;;;;;;;5.93;4.30;;;-8.00;99.90;;;;;;5053544;28;20210;-46
2022/12/12 10:11:03;;;;;;;3.90;3.50;;;-7.80;99.90;;;;;;5054389;28;20647;-46
2022/12/12 10:13:33;;;;;;;3.88;3.08;;;-7.90;99.90;;;;;;5053990;28;20664;-46
2022/12/12 10:16:07;;;;;;;5.82;4.95;;;-7.90;99.90;;;;;;5053576;28;20286;-46
2022/12/12 10:18:39;;;;;;;9.23;7.38;;;-7.50;99.90;;;;;;5054334;28;20274;-46
2022/12/12 10:21:13;;;;;;;6.40;5.03;;;-7.20;99.90;;;;;;5053588;28;20571;-46
2022/12/12 10:23:44;;;;;;;6.80;4.00;;;-6.80;99.90;;;;;;5053383;28;20191;-45
2022/12/12 10:26:16;;;;;;;4.95;3.50;;;-6.70;99.90;;;;;;5053439;28;20206;-45
2022/12/12 10:28:44;;;;;;;4.90;3.90;;;-6.80;99.90;;;;;;5053047;28;20199;-45
2022/12/12 10:31:23;;;;;;;4.05;3.30;;;-6.70;99.90;;;;;;5052244;28;20290;-45
2022/12/12 10:34:05;;;;;;;3.65;3.30;;;-6.90;99.90;;;;;;5051579;28;20310;-45
2022/12/12 10:36:48;;;;;;;6.72;4.05;;;-7.20;99.90;;;;;;5051985;28;20286;-47
2022/12/12 10:39:25;;;;;;;4.63;3.90;;;-7.30;99.90;;;;;;5050821;28;20219;-45
2022/12/12 10:41:59;;;;;;;4.75;4.28;;;-6.80;99.90;;;;;;5052369;28;20199;-45
2022/12/12 10:44:50;;;;;;;7.55;5.40;;;-6.90;99.90;;;;;;5063066;28;20377;-48
2022/12/12 10:47:19;;;;;;;4.10;3.75;;;-6.60;99.90;;;;;;5053340;28;20199;-47
2022/12/12 10:49:46;;;;;;;8.45;4.70;;;-6.60;99.90;;;;;;5053291;28;20195;-47
2022/12/12 10:52:18;;;;;;;6.70;4.93;;;-6.10;99.90;;;;;;5053501;28;20222;-47
2022/12/12 10:54:48;;;;;;;4.70;3.80;;;-6.50;99.90;;;;;;5053278;28;20299;-48
2022/12/12 10:57:21;;;;;;;4.68;3.45;;;-6.20;99.90;;;;;;5053380;28;20278;-48
2022/12/12 10:59:49;;;;;;;6.88;3.70;;;-5.90;99.90;;;;;;5052995;28;20290;-47
2022/12/12 11:02:34;;;;;;;4.22;3.63;;;-5.90;99.90;;;;;;5051563;28;20279;-47
2022/12/12 11:05:15;;;;;;;5.03;4.53;;;-5.70;99.90;;;;;;5051781;28;20233;-48
2022/12/12 11:07:44;;;;;;;6.28;3.58;;;-5.60;99.90;;;;;;5051622;28;20639;-47
2022/12/12 11:10:29;;;;;;;7.85;5.30;;;-5.70;99.90;;;;;;5051758;28;20286;-47
2022/12/12 11:12:57;;;;;;;8.63;4.97;;;-6.30;99.90;;;;;;5050202;28;20207;-47
2022/12/12 11:15:38;;;;;;;6.22;5.15;;;-6.40;99.90;;;;;;5051608;28;20246;-47
2022/12/12 11:18:12;;;;;;;4.60;2.70;;;-6.10;99.90;;;;;;5052919;28;20577;-47
2022/12/12 11:20:45;;;;;;;2.72;1.95;;;-5.70;99.90;;;;;;5053047;28;20206;-47
2022/12/12 11:23:17;;;;;;;6.07;2.10;;;-5.20;99.90;;;;;;5052463;28;20206;-47
2022/12/12 11:25:43;;;;;;;6.10;4.77;;;-5.10;99.90;;;;;;5051917;28;20736;-47
2022/12/12 11:28:21;;;;;;;9.83;7.30;;;-5.00;99.90;;;;;;5052543;28;20545;-48
2022/12/12 11:30:52;;;;;;;9.50;6.55;;;-5.10;99.90;;;;;;5052723;28;20537;-47
2022/12/12 11:33:23;;;;;;;12.73;9.52;;;-5.00;99.90;;;;;;5052469;28;20290;-47
2022/12/12 11:35:55;;;;;;;22.38;14.93;;;-4.90;99.90;;;;;;5051910;28;20243;-47
2022/12/12 11:38:27;;;;;;;21.97;13.83;;;-4.90;99.90;;;;;;5051389;28;20195;-47
2022/12/12 11:40:59;;;;;;;15.00;8.80;;;-5.10;99.90;;;;;;5034468;28;20438;-47
2022/12/12 11:43:28;;;;;;;11.23;9.70;;;-5.00;99.90;;;;;;5032722;28;20539;-47
2022/12/12 11:45:59;;;;;;;8.38;7.20;;;-4.80;99.90;;;;;;5052129;28;20484;-47
2022/12/12 11:48:37;;;;;;;12.57;9.10;;;-4.60;99.90;;;;;;5052172;28;20191;-47
2022/12/12 11:51:04;;;;;;;9.30;8.00;;;-4.40;99.90;;;;;;5052250;28;20636;-47
2022/12/12 11:53:35;;;;;;;8.90;6.90;;;-4.30;99.90;;;;;;5051881;28;20453;-48
2022/12/12 11:56:22;;;;;;;8.40;6.55;;;-4.70;99.90;;;;;;5051764;28;20967;-47
2022/12/12 11:58:57;;;;;;;6.80;6.20;;;-4.90;99.90;;;;;;5049160;28;20202;-47
2022/12/12 12:01:32;;;;;;;8.43;7.40;;;-5.20;99.90;;;;;;5052585;28;20528;-47
2022/12/12 12:04:16;;;;;;;8.10;6.03;;;-4.90;99.90;;;;;;5049847;28;20555;-48
2022/12/12 12:07:00;;;;;;;6.50;5.80;;;-4.80;99.90;;;;;;5049673;28;20505;-48
2022/12/12 12:09:37;;;;;;;10.40;6.20;;;-4.20;99.90;;;;;;5050148;28;20461;-47
2022/12/12 12:12:11;;;;;;;10.27;5.67;;;-4.00;99.90;;;;;;5050538;28;20530;-46
2022/12/12 12:15:09;;;;;;;6.83;5.73;;;-3.90;99.90;;;;;;5049878;28;20458;-47
2022/12/12 12:17:57;;;;;;;7.27;6.00;;;-4.10;99.90;;;;;;5032992;28;20458;-47
2022/12/12 12:20:38;;;;;;;6.00;4.97;;;-4.30;99.90;;;;;;5059818;28;21054;-47
2022/12/12 12:23:19;;;;;;;9.43;6.53;;;-4.20;99.90;;;;;;5051635;28;20533;-47
2022/12/12 12:25:58;;;;;;;6.47;5.27;;;-3.90;99.90;;;;;;5051269;28;20992;-47
2022/12/12 12:28:57;;;;;;;6.87;4.60;;;-3.70;99.90;;;;;;5051191;28;20453;-48
2022/12/12 12:31:32;;;;;;;4.95;4.25;;;-3.80;99.90;;;;;;5051506;28;20937;-47
2022/12/12 12:34:09;;;;;;;7.50;4.87;;;-4.00;99.90;;;;;;5050785;28;20655;-47
2022/12/12 12:36:49;;;;;;;4.40;3.73;;;-3.80;99.90;;;;;;5051313;28;21013;-47
2022/12/12 12:39:31;;;;;;;7.47;4.90;;;-3.60;99.90;;;;;;5051347;28;20947;-47
2022/12/12 12:42:15;;;;;;;5.90;5.00;;;-3.60;99.90;;;;;;5051091;28;20547;-46
2022/12/12 12:45:02;;;;;;;5.93;4.53;;;-3.50;99.90;;;;;;5050953;28;20569;-48
2022/12/12 12:47:40;;;;;;;6.47;5.20;;;-3.70;99.90;;;;;;5051157;28;20448;-48
2022/12/12 12:50:16;;;;;;;7.83;5.40;;;-3.70;99.90;;;;;;5050411;28;20526;-47
2022/12/12 12:52:53;;;;;;;5.00;4.13;;;-3.60;99.90;;;;;;5051330;28;20562;-47
2022/12/12 12:55:24;;;;;;;6.70;5.00;;;-3.50;99.90;;;;;;5051240;28;20463;-47
2022/12/12 12:57:52;;;;;;;5.67;4.37;;;-3.80;99.90;;;;;;5050825;28;20546;-49
2022/12/12 13:00:21;;;;;;;5.53;4.30;;;-3.80;99.90;;;;;;5050501;28;20915;-48
2022/12/12 13:02:55;;;;;;;7.13;4.80;;;-4.00;99.90;;;;;;5051054;28;20446;-48
2022/12/12 13:05:30;;;;;;;4.93;4.43;;;-4.00;99.90;;;;;;5050403;28;20516;-47
2022/12/12 13:08:06;;;;;;;7.33;5.40;;;-3.90;99.90;;;;;;5049288;28;20534;-49
2022/12/12 13:10:34;;;;;;;5.23;4.33;;;-4.10;99.90;;;;;;5049415;28;20435;-48
2022/12/12 13:13:08;;;;;;;7.43;5.40;;;-3.90;99.90;;;;;;5049579;28;20530;-48
2022/12/12 13:15:40;;;;;;;5.33;4.80;;;-3.80;99.90;;;;;;5049056;28;20542;-47
2022/12/12 13:18:12;;;;;;;4.83;4.40;;;-3.80;99.90;;;;;;5049493;28;20533;-47
2022/12/12 13:20:41;;;;;;;3.43;3.13;;;-3.60;99.90;;;;;;5049308;28;20448;-48